Time;durP1;ratioP1;P1;durP2;ratioP2;P2;SDS_P1;SDS_P2;PMS_P1;PMS_P2;Temp;Humidity;BMP_temperature;BMP_pressure;BME280_temperature;BME280_humidity;BME280_pressure;Samples;Min_cycle;Max_cycle;Signal;HPM_P1;HPM_P2
2021/01/01 00:00:22;;;;;;;28.70;16.73;;;4.60;99.90;;;;;;4178547;28;20037;-83
2021/01/01 00:02:22;;;;;;;25.83;15.00;;;4.60;99.90;;;;;;4155587;28;20045;-83
2021/01/01 00:04:23;;;;;;;26.15;15.60;;;4.70;99.90;;;;;;4162087;28;20541;-83
2021/01/01 00:06:34;;;;;;;25.52;14.82;;;4.70;99.90;;;;;;4177535;28;20108;-83
2021/01/01 00:08:35;;;;;;;26.15;15.25;;;4.70;99.90;;;;;;4153922;28;20057;-83
2021/01/01 00:10:36;;;;;;;25.67;14.75;;;4.70;99.90;;;;;;4151677;28;20520;-83
2021/01/01 00:12:37;;;;;;;25.05;15.75;;;4.70;99.90;;;;;;4169972;28;20036;-83
2021/01/01 00:14:37;;;;;;;27.23;16.25;;;4.70;99.90;;;;;;4178707;28;20017;-83
2021/01/01 00:16:38;;;;;;;29.70;17.35;;;4.70;99.90;;;;;;4165872;28;20029;-83
2021/01/01 00:18:40;;;;;;;31.40;18.33;;;4.70;99.90;;;;;;4162590;28;20030;-83
2021/01/01 00:20:42;;;;;;;40.22;21.92;;;4.70;99.90;;;;;;4179733;28;20025;-83
2021/01/01 00:22:43;;;;;;;33.97;20.83;;;4.70;99.90;;;;;;4155429;28;20037;-83
2021/01/01 00:24:43;;;;;;;34.97;19.65;;;4.70;99.90;;;;;;4172147;28;20029;-83
2021/01/01 00:26:50;;;;;;;35.88;21.38;;;4.70;99.90;;;;;;4148280;28;20390;-83
2021/01/01 00:28:52;;;;;;;37.60;22.02;;;4.70;99.90;;;;;;4179718;28;22716;-83
2021/01/01 00:30:53;;;;;;;36.85;22.27;;;4.70;99.90;;;;;;4164160;28;20029;-83
2021/01/01 00:32:56;;;;;;;37.53;22.50;;;4.60;99.90;;;;;;4157257;28;20045;-83
2021/01/01 00:34:56;;;;;;;;;;;4.60;99.90;;;;;;4154059;28;20030;-83
2021/01/01 00:37:00;;;;;;;37.70;20.95;;;4.60;99.90;;;;;;4193505;28;19936;-83
2021/01/01 00:39:01;;;;;;;34.42;20.38;;;4.50;99.90;;;;;;4165531;28;20029;-83
2021/01/01 00:41:01;;;;;;;34.72;21.05;;;4.60;99.90;;;;;;4162410;28;20668;-83
2021/01/01 00:43:02;;;;;;;34.03;20.38;;;4.50;99.90;;;;;;4166118;28;20520;-83
2021/01/01 00:45:05;;;;;;;33.53;20.08;;;4.50;99.90;;;;;;4155253;28;20045;-83
2021/01/01 00:47:09;;;;;;;31.52;18.27;;;4.50;99.90;;;;;;4154181;28;20038;-83
2021/01/01 00:49:09;;;;;;;29.52;18.85;;;4.50;99.90;;;;;;4151408;28;20033;-84
2021/01/01 00:51:10;;;;;;;33.95;19.92;;;4.60;99.90;;;;;;4177450;28;20505;-84
2021/01/01 00:53:11;;;;;;;28.60;16.88;;;4.60;99.90;;;;;;4171968;28;20524;-84
2021/01/01 00:55:11;;;;;;;31.88;18.40;;;4.60;99.90;;;;;;4175785;28;20491;-84
2021/01/01 00:57:12;;;;;;;28.92;17.23;;;4.60;99.90;;;;;;4147576;28;20034;-84
2021/01/01 00:59:13;;;;;;;28.65;17.60;;;4.60;99.90;;;;;;4179020;28;20037;-84
2021/01/01 01:01:39;;;;;;;28.33;17.45;;;4.60;99.90;;;;;;4172146;28;20755;-84
2021/01/01 01:03:39;;;;;;;28.55;17.52;;;4.60;99.90;;;;;;4149168;28;20034;-84
2021/01/01 01:05:40;;;;;;;28.23;16.55;;;4.70;99.90;;;;;;4177231;28;20063;-84
2021/01/01 01:07:47;;;;;;;29.17;18.73;;;4.70;99.90;;;;;;4175770;28;20124;-84
2021/01/01 01:09:49;;;;;;;34.05;18.75;;;4.70;99.90;;;;;;4170697;28;20033;-84
2021/01/01 01:12:13;;;;;;;29.10;17.23;;;4.70;99.90;;;;;;4165821;28;20057;-84
2021/01/01 01:14:14;;;;;;;27.15;16.95;;;4.70;99.90;;;;;;4145162;28;20394;-84
2021/01/01 01:16:41;;;;;;;26.45;16.80;;;4.70;99.90;;;;;;4151097;28;20109;-84
2021/01/01 01:18:42;;;;;;;26.40;16.35;;;4.70;99.90;;;;;;4165711;28;20022;-84
2021/01/01 01:20:53;;;;;;;26.48;16.05;;;4.70;99.90;;;;;;4172081;28;20030;-84
2021/01/01 01:22:53;;;;;;;28.40;17.55;;;4.80;99.90;;;;;;4161464;28;20099;-84
2021/01/01 01:24:54;;;;;;;29.17;17.58;;;4.80;99.90;;;;;;4144513;28;20041;-84
2021/01/01 01:26:57;;;;;;;30.45;17.52;;;4.70;99.90;;;;;;4168785;28;20025;-84
2021/01/01 01:28:57;;;;;;;30.65;18.25;;;4.70;99.90;;;;;;4139561;28;20043;-84
2021/01/01 01:30:58;;;;;;;30.55;18.65;;;4.70;99.90;;;;;;4169596;28;20080;-84
2021/01/01 01:32:59;;;;;;;29.92;18.30;;;4.70;99.90;;;;;;4168212;28;20508;-84
2021/01/01 01:35:00;;;;;;;31.80;18.15;;;4.70;99.90;;;;;;4165440;28;20028;-84
2021/01/01 01:37:00;;;;;;;25.90;16.83;;;4.70;99.90;;;;;;4144581;28;20058;-84
2021/01/01 01:39:01;;;;;;;30.02;18.33;;;4.70;99.90;;;;;;4158319;28;20034;-84
2021/01/01 01:41:02;;;;;;;31.48;18.00;;;4.70;99.90;;;;;;4177299;28;20435;-84
2021/01/01 01:43:03;;;;;;;27.25;16.83;;;4.70;99.90;;;;;;4150548;28;20025;-84
2021/01/01 01:45:06;;;;;;;29.65;18.20;;;4.80;99.90;;;;;;4161007;28;20065;-84
2021/01/01 01:47:14;;;;;;;31.33;19.13;;;4.80;99.90;;;;;;4166175;28;20037;-84
2021/01/01 01:49:15;;;;;;;32.08;19.83;;;4.80;99.90;;;;;;4150075;28;20045;-84
2021/01/01 01:51:16;;;;;;;33.33;20.35;;;4.70;99.90;;;;;;4170879;28;20050;-84
2021/01/01 01:53:18;;;;;;;34.08;20.90;;;4.80;99.90;;;;;;4152353;28;20030;-84
2021/01/01 01:55:19;;;;;;;32.88;21.15;;;4.80;99.90;;;;;;4158650;28;20123;-84
2021/01/01 01:57:22;;;;;;;32.95;19.05;;;4.80;99.90;;;;;;4146764;28;20030;-84
2021/01/01 01:59:31;;;;;;;32.95;19.58;;;4.80;99.90;;;;;;4165399;28;20037;-84
2021/01/01 02:01:32;;;;;;;30.55;18.80;;;4.80;99.90;;;;;;4173846;28;20572;-84
2021/01/01 02:03:34;;;;;;;32.92;20.00;;;4.80;99.90;;;;;;4152405;28;20080;-84
2021/01/01 02:05:35;;;;;;;26.02;16.92;;;4.80;99.90;;;;;;4168141;28;20083;-84
2021/01/01 02:07:42;;;;;;;27.98;16.33;;;4.80;99.90;;;;;;4152512;28;20052;-84
2021/01/01 02:09:45;;;;;;;30.27;18.55;;;4.80;99.90;;;;;;4155881;28;20046;-84
2021/01/01 02:11:48;;;;;;;29.27;17.25;;;4.80;99.90;;;;;;4150266;28;20208;-84
2021/01/01 02:13:53;;;;;;;28.88;17.83;;;4.80;99.90;;;;;;4154948;28;20041;-84
2021/01/01 02:15:54;;;;;;;31.88;19.15;;;4.80;99.90;;;;;;4157962;28;20059;-84
2021/01/01 02:17:55;;;;;;;30.58;18.17;;;4.80;99.90;;;;;;4146367;28;20037;-84
2021/01/01 02:20:09;;;;;;;28.00;16.83;;;4.80;99.90;;;;;;4164410;28;20083;-84
2021/01/01 02:22:10;;;;;;;28.83;17.73;;;4.80;99.90;;;;;;4163712;28;20029;-84
2021/01/01 02:24:20;;;;;;;29.52;18.02;;;4.80;99.90;;;;;;4149633;28;20055;-84
2021/01/01 02:26:21;;;;;;;33.60;20.17;;;4.80;99.90;;;;;;4175223;28;20496;-84
2021/01/01 02:28:21;;;;;;;34.75;19.42;;;4.80;99.90;;;;;;4155837;28;20109;-84
2021/01/01 02:30:22;;;;;;;32.13;19.50;;;4.80;99.90;;;;;;4169936;28;20057;-84
2021/01/01 02:32:23;;;;;;;31.08;18.50;;;4.80;99.90;;;;;;4166301;28;20683;-84
2021/01/01 02:34:41;;;;;;;29.55;18.75;;;4.80;99.90;;;;;;4147910;28;20038;-84
2021/01/01 02:36:41;;;;;;;33.75;19.55;;;4.80;99.90;;;;;;4180244;28;20036;-84
2021/01/01 02:38:42;;;;;;;31.23;19.05;;;4.80;99.90;;;;;;4148461;28;20030;-82
2021/01/01 02:40:43;;;;;;;30.15;18.70;;;4.80;99.90;;;;;;4169338;28;20033;-82
2021/01/01 02:42:43;;;;;;;32.70;19.27;;;4.80;99.90;;;;;;4165147;28;20034;-82
2021/01/01 02:44:56;;;;;;;28.98;18.58;;;4.80;99.90;;;;;;4147985;28;20022;-82
2021/01/01 02:47:04;;;;;;;28.98;17.83;;;4.80;99.90;;;;;;4151670;28;20072;-82
2021/01/01 02:49:04;;;;;;;30.25;18.00;;;4.80;99.90;;;;;;4151881;28;20026;-82
2021/01/01 02:51:05;;;;;;;33.47;19.85;;;4.80;99.90;;;;;;4168693;28;20052;-82
2021/01/01 02:53:06;;;;;;;34.35;19.80;;;4.80;99.90;;;;;;4178920;28;20043;-82
2021/01/01 02:55:07;;;;;;;28.83;18.33;;;4.80;99.90;;;;;;4174984;28;20099;-82
2021/01/01 02:57:09;;;;;;;28.73;18.10;;;4.80;99.90;;;;;;4171323;28;20120;-82
2021/01/01 02:59:10;;;;;;;30.05;19.35;;;4.80;99.90;;;;;;4173790;28;20040;-82
2021/01/01 03:01:10;;;;;;;28.27;17.33;;;4.80;99.90;;;;;;4165590;28;20030;-82
2021/01/01 03:03:11;;;;;;;31.67;18.15;;;4.80;99.90;;;;;;4164595;28;20068;-82
2021/01/01 03:05:12;;;;;;;31.48;19.55;;;4.80;99.90;;;;;;4161941;28;20025;-82
2021/01/01 03:07:13;;;;;;;31.20;18.85;;;4.80;99.90;;;;;;4165842;28;20060;-82
2021/01/01 03:09:13;;;;;;;31.70;18.67;;;4.80;99.90;;;;;;4154966;28;20698;-82
2021/01/01 03:11:14;;;;;;;29.42;18.17;;;4.80;99.90;;;;;;4168470;28;20032;-82
2021/01/01 03:13:15;;;;;;;31.58;19.58;;;4.80;99.90;;;;;;4180382;28;20334;-82
2021/01/01 03:15:16;;;;;;;31.63;18.38;;;4.80;99.90;;;;;;4179255;28;20485;-82
2021/01/01 03:17:16;;;;;;;33.15;19.85;;;4.90;99.90;;;;;;4154310;28;20037;-83
2021/01/01 03:19:17;;;;;;;29.90;19.20;;;4.90;99.90;;;;;;4160867;28;20087;-82
2021/01/01 03:21:18;;;;;;;34.40;20.92;;;4.80;99.90;;;;;;4172231;28;20428;-82
2021/01/01 03:23:19;;;;;;;35.45;20.00;;;4.90;99.90;;;;;;4165155;28;20040;-82
2021/01/01 03:25:29;;;;;;;32.17;18.73;;;4.90;99.90;;;;;;4160291;28;20030;-83
2021/01/01 03:27:29;;;;;;;31.58;19.55;;;4.90;99.90;;;;;;4173003;28;20029;-83
2021/01/01 03:29:30;;;;;;;27.05;17.48;;;4.90;99.90;;;;;;4172898;28;20017;-83
2021/01/01 03:31:30;;;;;;;34.17;19.35;;;4.80;99.90;;;;;;4164033;28;20029;-83
2021/01/01 03:33:31;;;;;;;32.42;19.95;;;4.80;99.90;;;;;;4154944;28;20033;-83
2021/01/01 03:35:32;;;;;;;29.10;18.02;;;4.80;99.90;;;;;;4169637;28;20029;-82
2021/01/01 03:37:34;;;;;;;29.05;17.35;;;4.80;99.90;;;;;;4154816;28;20113;-82
2021/01/01 03:39:35;;;;;;;30.95;18.30;;;4.80;99.90;;;;;;4171304;28;20037;-82
2021/01/01 03:41:35;;;;;;;30.95;18.13;;;4.80;99.90;;;;;;4148376;28;20049;-82
2021/01/01 03:43:36;;;;;;;30.02;18.27;;;4.80;99.90;;;;;;4154135;28;20034;-82
2021/01/01 03:45:37;;;;;;;30.30;18.88;;;4.80;99.90;;;;;;4155106;28;20037;-82
2021/01/01 03:47:37;;;;;;;30.05;17.67;;;4.80;99.90;;;;;;4163566;28;20033;-82
2021/01/01 03:49:38;;;;;;;33.55;19.85;;;4.90;99.90;;;;;;4168031;28;20044;-82
2021/01/01 03:51:39;;;;;;;29.90;18.77;;;4.80;99.90;;;;;;4154977;28;20029;-82
2021/01/01 03:53:40;;;;;;;35.17;19.70;;;4.80;99.90;;;;;;4162383;28;20105;-82
2021/01/01 03:55:40;;;;;;;30.35;19.40;;;4.80;99.90;;;;;;4157005;28;20046;-82
2021/01/01 03:57:41;;;;;;;38.10;22.00;;;4.80;99.90;;;;;;4156296;28;20119;-82
2021/01/01 03:59:41;;;;;;;38.80;22.00;;;4.80;99.90;;;;;;4154616;28;20104;-82
2021/01/01 04:01:42;;;;;;;36.30;21.17;;;4.80;99.90;;;;;;4165163;28;20025;-82
2021/01/01 04:03:43;;;;;;;36.58;20.48;;;4.80;99.90;;;;;;4171670;28;20071;-82
2021/01/01 04:05:43;;;;;;;36.97;21.27;;;4.80;99.90;;;;;;4151178;28;20037;-82
2021/01/01 04:07:44;;;;;;;33.05;20.90;;;4.80;99.90;;;;;;4161903;28;20088;-82
2021/01/01 04:09:45;;;;;;;37.08;22.55;;;4.80;99.90;;;;;;4179621;28;20047;-82
2021/01/01 04:11:54;;;;;;;36.38;21.67;;;4.80;99.90;;;;;;4146659;28;20034;-82
2021/01/01 04:13:55;;;;;;;34.80;20.58;;;4.80;99.90;;;;;;4168002;28;20029;-82
2021/01/01 04:15:56;;;;;;;39.60;23.55;;;4.80;99.90;;;;;;4172251;28;20044;-82
2021/01/01 04:17:56;;;;;;;42.08;23.73;;;4.80;99.90;;;;;;4159871;28;20564;-82
2021/01/01 04:19:57;;;;;;;38.22;22.98;;;4.80;99.90;;;;;;4177929;28;20087;-82
2021/01/01 04:21:57;;;;;;;38.85;22.23;;;4.70;99.90;;;;;;4178346;28;20039;-82
2021/01/01 04:23:58;;;;;;;36.05;21.63;;;4.70;99.90;;;;;;4166803;28;20037;-82
2021/01/01 04:25:59;;;;;;;36.30;20.98;;;4.70;99.90;;;;;;4169513;28;20022;-82
2021/01/01 04:28:00;;;;;;;34.95;21.83;;;4.70;99.90;;;;;;4153449;28;20049;-82
2021/01/01 04:30:00;;;;;;;36.17;21.08;;;4.70;99.90;;;;;;4173101;28;20053;-82
2021/01/01 04:32:01;;;;;;;40.70;23.55;;;4.70;99.90;;;;;;4165664;28;20474;-82
2021/01/01 04:34:03;;;;;;;37.30;21.67;;;4.70;99.90;;;;;;4145383;28;20049;-82
2021/01/01 04:36:04;;;;;;;36.00;20.70;;;4.70;99.90;;;;;;4164254;28;20033;-82
2021/01/01 04:38:05;;;;;;;37.42;21.98;;;4.70;99.90;;;;;;4149135;28;20061;-82
2021/01/01 04:40:06;;;;;;;36.03;22.23;;;4.70;99.90;;;;;;4166695;28;20032;-82
2021/01/01 04:42:07;;;;;;;41.42;23.45;;;4.70;99.90;;;;;;4172250;28;20064;-82
2021/01/01 04:44:08;;;;;;;36.78;21.98;;;4.70;99.90;;;;;;4175431;28;20036;-82
2021/01/01 04:46:09;;;;;;;36.67;21.80;;;4.70;99.90;;;;;;4175198;28;20053;-82
2021/01/01 04:48:09;;;;;;;35.03;22.05;;;4.70;99.90;;;;;;4145256;28;20042;-82
2021/01/01 04:50:14;;;;;;;;;;;4.70;99.90;;;;;;4169234;28;20029;-82
2021/01/01 04:52:17;;;;;;;36.10;21.08;;;4.70;99.90;;;;;;4168945;28;19996;-82
2021/01/01 04:54:21;;;;;;;37.63;22.77;;;4.70;99.90;;;;;;4153196;28;20041;-82
2021/01/01 04:56:22;;;;;;;40.35;23.42;;;4.70;99.90;;;;;;4153416;28;20030;-82
2021/01/01 04:58:23;;;;;;;41.28;23.55;;;4.70;99.90;;;;;;4169649;28;20087;-82
2021/01/01 05:00:24;;;;;;;42.70;24.20;;;4.70;99.90;;;;;;4171336;28;20029;-82
2021/01/01 05:02:25;;;;;;;39.70;23.75;;;4.70;99.90;;;;;;4142872;28;20041;-82
2021/01/01 05:04:26;;;;;;;39.63;23.45;;;4.60;99.90;;;;;;4162200;28;20107;-82
2021/01/01 05:06:28;;;;;;;40.38;24.58;;;4.60;99.90;;;;;;4168551;28;20030;-82
2021/01/01 05:08:30;;;;;;;44.38;25.55;;;4.60;99.90;;;;;;4171133;28;20025;-82
2021/01/01 05:10:34;;;;;;;41.80;24.67;;;4.60;99.90;;;;;;4161785;28;20033;-82
2021/01/01 05:12:35;;;;;;;46.65;26.30;;;4.60;99.90;;;;;;4168622;28;20041;-82
2021/01/01 05:14:36;;;;;;;44.50;25.92;;;4.60;99.90;;;;;;4169904;28;20040;-82
2021/01/01 05:16:38;;;;;;;48.53;26.73;;;4.60;99.90;;;;;;4163795;28;20043;-82
2021/01/01 05:18:38;;;;;;;45.45;25.45;;;4.60;99.90;;;;;;4161406;28;20478;-82
2021/01/01 05:20:39;;;;;;;41.83;25.08;;;4.60;99.90;;;;;;4164676;28;20091;-82
2021/01/01 05:22:40;;;;;;;43.10;25.30;;;4.60;99.90;;;;;;4160784;28;20718;-82
2021/01/01 05:24:44;;;;;;;38.00;24.42;;;4.60;99.90;;;;;;4144879;28;20030;-82
2021/01/01 05:26:48;;;;;;;46.15;26.50;;;4.60;99.90;;;;;;4163404;28;20041;-82
2021/01/01 05:28:49;;;;;;;42.47;26.15;;;4.60;99.90;;;;;;4166099;28;20095;-82
2021/01/01 05:30:50;;;;;;;48.17;27.60;;;4.60;99.90;;;;;;4161252;28;20500;-82
2021/01/01 05:32:52;;;;;;;44.65;26.92;;;4.60;99.90;;;;;;4147123;28;20108;-82
2021/01/01 05:34:54;;;;;;;46.28;26.63;;;4.60;99.90;;;;;;4159546;28;20037;-82
2021/01/01 05:37:03;;;;;;;42.78;25.88;;;4.60;99.90;;;;;;4168689;28;20492;-82
2021/01/01 05:39:23;;;;;;;45.55;26.33;;;4.60;99.90;;;;;;4148258;28;20038;-82
2021/01/01 05:41:36;;;;;;;42.75;25.90;;;4.60;99.90;;;;;;4185384;28;20116;-82
2021/01/01 05:43:36;;;;;;;47.75;27.88;;;4.60;99.90;;;;;;4167829;28;20100;-82
2021/01/01 05:45:37;;;;;;;51.53;28.10;;;4.60;99.90;;;;;;4175354;28;20033;-82
2021/01/01 05:47:37;;;;;;;50.13;28.00;;;4.60;99.90;;;;;;4175332;28;20029;-82
2021/01/01 05:49:42;;;;;;;50.58;28.90;;;4.50;99.90;;;;;;4168604;28;20104;-82
2021/01/01 05:51:42;;;;;;;49.10;27.90;;;4.50;99.90;;;;;;4168015;28;20504;-82
2021/01/01 05:53:43;;;;;;;50.10;28.65;;;4.60;99.90;;;;;;4168908;28;20029;-82
2021/01/01 05:55:46;;;;;;;54.63;31.40;;;4.50;99.90;;;;;;4170424;28;20060;-82
2021/01/01 05:57:48;;;;;;;52.33;29.73;;;4.50;99.90;;;;;;4139616;28;20085;-82
2021/01/01 06:00:10;;;;;;;53.28;30.38;;;4.50;99.90;;;;;;4152137;28;20040;-82
2021/01/01 06:02:19;;;;;;;54.17;31.02;;;4.50;99.90;;;;;;4162821;28;20033;-82
2021/01/01 06:04:21;;;;;;;55.08;30.92;;;4.50;99.90;;;;;;4151986;28;20521;-81
2021/01/01 06:06:24;;;;;;;51.10;29.63;;;4.50;99.90;;;;;;4165651;28;20087;-82
2021/01/01 06:08:28;;;;;;;56.65;31.67;;;4.50;99.90;;;;;;4147804;28;20033;-82
2021/01/01 06:10:30;;;;;;;51.25;30.33;;;4.50;99.90;;;;;;4163830;28;20025;-82
2021/01/01 06:12:35;;;;;;;57.85;32.80;;;4.50;99.90;;;;;;4165669;28;20426;-82
2021/01/01 06:14:42;;;;;;;57.60;33.30;;;4.50;99.90;;;;;;4156595;28;20084;-82
2021/01/01 06:16:45;;;;;;;58.38;32.92;;;4.50;99.90;;;;;;4178478;28;20032;-82
2021/01/01 06:18:52;;;;;;;57.63;33.17;;;4.40;99.90;;;;;;4167506;28;20030;-82
2021/01/01 06:21:04;;;;;;;53.55;31.08;;;4.40;99.90;;;;;;4149731;28;20084;-82
2021/01/01 06:23:08;;;;;;;62.83;32.85;;;4.40;99.90;;;;;;4152470;28;20037;-82
2021/01/01 06:25:11;;;;;;;60.20;34.67;;;4.40;99.90;;;;;;4172453;28;20628;-82
2021/01/01 06:27:13;;;;;;;62.85;33.75;;;4.50;99.90;;;;;;4178076;28;20025;-83
2021/01/01 06:29:19;;;;;;;60.75;34.17;;;4.40;99.90;;;;;;4172266;28;20048;-83
2021/01/01 06:31:21;;;;;;;60.20;33.78;;;4.40;99.90;;;;;;4174081;28;20057;-83
2021/01/01 06:33:23;;;;;;;59.35;34.92;;;4.50;99.90;;;;;;4151833;28;20057;-83
2021/01/01 06:35:24;;;;;;;;;;;4.40;99.90;;;;;;4148729;28;20490;-83
2021/01/01 06:37:40;;;;;;;55.83;32.28;;;4.40;99.90;;;;;;4180561;28;19912;-83
2021/01/01 06:39:42;;;;;;;59.97;34.63;;;4.40;99.90;;;;;;4153811;28;20021;-83
2021/01/01 06:42:11;;;;;;;63.33;34.88;;;4.50;99.90;;;;;;4165679;28;20059;-83
2021/01/01 06:44:32;;;;;;;62.00;36.35;;;4.40;99.90;;;;;;4150258;28;20034;-83
2021/01/01 06:46:38;;;;;;;57.78;33.83;;;4.40;99.90;;;;;;4170734;28;20109;-83
2021/01/01 06:48:38;;;;;;;63.97;35.03;;;4.40;99.90;;;;;;4165179;28;20029;-83
2021/01/01 06:50:43;;;;;;;62.47;37.15;;;4.40;99.90;;;;;;4172342;28;20105;-83
2021/01/01 06:52:45;;;;;;;67.78;36.58;;;4.40;99.90;;;;;;4176366;28;20068;-82
2021/01/01 06:54:58;;;;;;;65.60;36.33;;;4.40;99.90;;;;;;4153554;28;20040;-82
2021/01/01 06:57:05;;;;;;;63.60;36.80;;;4.40;99.90;;;;;;4156827;28;20030;-82
2021/01/01 06:59:11;;;;;;;65.35;35.65;;;4.40;99.90;;;;;;4175049;28;20449;-82
2021/01/01 07:01:24;;;;;;;62.40;35.75;;;4.50;99.90;;;;;;4154965;28;20698;-82
2021/01/01 07:03:31;;;;;;;62.70;36.40;;;4.50;99.90;;;;;;4150621;28;20120;-82
2021/01/01 07:05:33;;;;;;;66.75;37.92;;;4.50;99.90;;;;;;4169823;28;20049;-82
2021/01/01 07:07:41;;;;;;;;;;;4.40;99.90;;;;;;4162593;28;20693;-82
2021/01/01 07:09:41;;;;;;;65.10;36.17;;;4.40;99.90;;;;;;4178184;28;19919;-82
2021/01/01 07:11:43;;;;;;;66.72;36.63;;;4.40;99.90;;;;;;4172703;28;20043;-82
2021/01/01 07:13:49;;;;;;;67.13;37.70;;;4.40;99.90;;;;;;4163880;28;20025;-82
2021/01/01 07:15:50;;;;;;;70.13;38.30;;;4.40;99.90;;;;;;4168449;28;20029;-82
2021/01/01 07:17:50;;;;;;;66.03;38.50;;;4.40;99.90;;;;;;4170796;28;20051;-82
2021/01/01 07:19:51;;;;;;;61.95;36.22;;;4.40;99.90;;;;;;4167671;28;20041;-82
2021/01/01 07:21:52;;;;;;;70.43;37.83;;;4.50;99.90;;;;;;4147725;28;20038;-82
2021/01/01 07:23:52;;;;;;;72.75;41.45;;;4.40;99.90;;;;;;4184856;28;20121;-82
2021/01/01 07:25:54;;;;;;;69.38;39.00;;;4.40;99.90;;;;;;4190112;28;20029;-82
2021/01/01 07:27:55;;;;;;;68.93;39.25;;;4.40;99.90;;;;;;4173775;28;20059;-83
2021/01/01 07:30:09;;;;;;;65.88;37.17;;;4.40;99.90;;;;;;4163183;28;20358;-83
2021/01/01 07:32:10;;;;;;;65.28;36.80;;;4.40;99.90;;;;;;4149108;28;20030;-83
2021/01/01 07:34:11;;;;;;;64.18;36.63;;;4.40;99.90;;;;;;4168803;28;20037;-83
2021/01/01 07:36:12;;;;;;;75.30;39.70;;;4.40;99.90;;;;;;4159408;28;20045;-83
2021/01/01 07:38:13;;;;;;;65.15;37.50;;;4.40;99.90;;;;;;4168117;28;20412;-83
2021/01/01 07:40:15;;;;;;;69.00;38.25;;;4.40;99.90;;;;;;4173988;28;20044;-83
2021/01/01 07:42:16;;;;;;;70.47;39.92;;;4.40;99.90;;;;;;4151294;28;20041;-83
2021/01/01 07:44:19;;;;;;;69.82;39.90;;;4.40;99.90;;;;;;4156274;28;20033;-83
2021/01/01 07:46:19;;;;;;;;;;;4.40;99.90;;;;;;4176895;28;20083;-83
2021/01/01 07:48:20;;;;;;;64.35;35.55;;;4.40;99.90;;;;;;4146578;28;20004;-83
2021/01/01 07:50:21;;;;;;;66.50;37.40;;;4.40;99.90;;;;;;4172089;28;20034;-83
2021/01/01 07:52:22;;;;;;;72.03;36.88;;;4.40;99.90;;;;;;4167347;28;20053;-83
2021/01/01 07:54:29;;;;;;;68.25;39.00;;;4.40;99.90;;;;;;4164950;28;20026;-83
2021/01/01 07:56:30;;;;;;;71.60;40.13;;;4.40;99.90;;;;;;4158447;28;20076;-83
2021/01/01 07:58:31;;;;;;;65.15;37.78;;;4.40;99.90;;;;;;4178539;28;20033;-83
2021/01/01 08:00:33;;;;;;;67.07;38.25;;;4.40;99.90;;;;;;4151961;28;20528;-83
2021/01/01 08:02:35;;;;;;;65.45;38.10;;;4.30;99.90;;;;;;4143429;28;20026;-83
2021/01/01 08:04:36;;;;;;;68.15;40.17;;;4.40;99.90;;;;;;4166891;28;20056;-82
2021/01/01 08:06:36;;;;;;;72.55;39.80;;;4.40;99.90;;;;;;4153948;28;20045;-83
2021/01/01 08:08:37;;;;;;;75.10;41.50;;;4.40;99.90;;;;;;4150690;28;20046;-84
2021/01/01 08:10:39;;;;;;;74.70;42.03;;;4.40;99.90;;;;;;4150763;28;20026;-84
2021/01/01 08:12:53;;;;;;;72.25;41.63;;;4.40;99.90;;;;;;4145964;28;20037;-84
2021/01/01 08:14:55;;;;;;;76.32;39.45;;;4.30;99.90;;;;;;4148632;28;20100;-84
2021/01/01 08:16:56;;;;;;;66.93;38.75;;;4.40;99.90;;;;;;4135537;28;20042;-84
2021/01/01 08:18:56;;;;;;;68.50;38.83;;;4.40;99.90;;;;;;4139286;28;20165;-83
2021/01/01 08:21:02;;;;;;;63.05;36.47;;;4.40;99.90;;;;;;4160207;28;20025;-83
2021/01/01 08:23:16;;;;;;;69.45;38.47;;;4.30;99.90;;;;;;4166774;28;20041;-83
2021/01/01 08:25:17;;;;;;;73.18;38.17;;;4.40;99.90;;;;;;4146310;28;20434;-83
2021/01/01 08:27:26;;;;;;;63.70;36.63;;;4.30;99.90;;;;;;4152405;28;20058;-86
2021/01/01 08:29:33;;;;;;;69.78;39.13;;;4.40;99.90;;;;;;4171281;28;20095;-85
2021/01/01 08:31:44;;;;;;;70.38;38.30;;;4.40;99.90;;;;;;4147458;28;20034;-86
2021/01/01 08:33:54;;;;;;;63.47;37.55;;;4.40;99.90;;;;;;4162471;28;20033;-83
2021/01/01 08:36:14;;;;;;;71.78;39.70;;;4.40;99.90;;;;;;4153671;28;20529;-82
2021/01/01 08:38:17;;;;;;;72.85;38.90;;;4.50;99.90;;;;;;4164064;28;20038;-82
2021/01/01 08:40:22;;;;;;;74.20;40.70;;;4.40;99.90;;;;;;4142304;28;20110;-82
2021/01/01 08:42:24;;;;;;;69.53;38.28;;;4.40;99.90;;;;;;4169511;28;20032;-83
2021/01/01 08:44:25;;;;;;;70.90;39.67;;;4.50;99.90;;;;;;4162670;28;20042;-83
2021/01/01 08:46:27;;;;;;;63.45;36.92;;;4.50;99.90;;;;;;4163979;28;20041;-83
2021/01/01 08:48:29;;;;;;;69.80;39.45;;;4.50;99.90;;;;;;4164270;28;20029;-82
2021/01/01 08:50:30;;;;;;;75.47;43.30;;;4.50;99.90;;;;;;4160364;28;20544;-83
2021/01/01 08:52:32;;;;;;;77.05;42.25;;;4.50;99.90;;;;;;4157686;28;20033;-82
2021/01/01 08:54:33;;;;;;;75.20;40.58;;;4.50;99.90;;;;;;4169797;28;20033;-82
2021/01/01 08:56:33;;;;;;;75.22;41.00;;;4.50;99.90;;;;;;4169194;28;20598;-82
2021/01/01 08:58:34;;;;;;;76.20;42.00;;;4.50;99.90;;;;;;4163105;28;20092;-83
2021/01/01 09:00:36;;;;;;;72.70;42.28;;;4.50;99.90;;;;;;4164101;28;20053;-85
2021/01/01 09:02:37;;;;;;;78.37;44.13;;;4.50;99.90;;;;;;4173611;28;20044;-85
2021/01/01 09:04:40;;;;;;;73.10;41.65;;;4.50;99.90;;;;;;4172157;28;20268;-86
2021/01/01 09:07:04;;;;;;;71.32;41.10;;;4.50;99.90;;;;;;4150643;28;20029;-84
2021/01/01 09:09:06;;;;;;;73.18;41.78;;;4.50;99.90;;;;;;4155441;28;20084;-84
2021/01/01 09:11:20;;;;;;;74.10;41.40;;;4.50;99.90;;;;;;4174116;28;20053;-85
2021/01/01 09:13:30;;;;;;;73.72;41.00;;;4.50;99.90;;;;;;4165908;28;20093;-85
2021/01/01 09:15:31;;;;;;;70.68;39.65;;;4.50;99.90;;;;;;4153513;28;20064;-84
2021/01/01 09:17:31;;;;;;;70.55;39.70;;;4.50;99.90;;;;;;4148024;28;20041;-84
2021/01/01 09:19:32;;;;;;;74.07;41.08;;;4.50;99.90;;;;;;4167364;28;20111;-84
2021/01/01 09:21:32;;;;;;;72.53;41.17;;;4.50;99.90;;;;;;4146970;28;20056;-84
2021/01/01 09:23:33;;;;;;;77.35;43.28;;;4.50;99.90;;;;;;4157168;28;20040;-85
2021/01/01 09:25:45;;;;;;;77.07;42.65;;;4.50;99.90;;;;;;4165349;28;20059;-84
2021/01/01 09:27:47;;;;;;;71.47;40.13;;;4.50;99.90;;;;;;4167706;28;20043;-83
2021/01/01 09:30:08;;;;;;;76.07;41.85;;;4.50;99.90;;;;;;4159998;28;20037;-83
2021/01/01 09:32:09;;;;;;;71.85;39.72;;;4.60;99.90;;;;;;4157230;28;20135;-83
2021/01/01 09:34:10;;;;;;;82.18;43.13;;;4.60;99.90;;;;;;4174187;28;20115;-83
2021/01/01 09:36:11;;;;;;;75.75;43.33;;;4.60;99.90;;;;;;4145274;28;20588;-83
2021/01/01 09:38:12;;;;;;;76.15;43.10;;;4.60;99.90;;;;;;4151817;28;20211;-83
2021/01/01 09:41:05;;;;;;;74.63;42.17;;;4.60;99.90;;;;;;4150285;28;20041;-83
2021/01/01 09:43:07;;;;;;;73.53;40.00;;;4.60;99.90;;;;;;4183635;28;20078;-83
2021/01/01 09:45:29;;;;;;;70.65;39.63;;;4.60;99.90;;;;;;4171895;28;20033;-83
2021/01/01 09:47:29;;;;;;;72.22;40.72;;;4.60;99.90;;;;;;4170870;28;20040;-83
2021/01/01 09:49:36;;;;;;;68.15;39.28;;;4.60;99.90;;;;;;4153005;28;20112;-83
2021/01/01 09:51:39;;;;;;;75.50;41.83;;;4.60;99.90;;;;;;4179561;28;20033;-82
2021/01/01 09:53:41;;;;;;;72.45;41.33;;;4.60;99.90;;;;;;4151616;28;20030;-82
2021/01/01 09:55:50;;;;;;;72.55;39.88;;;4.60;99.90;;;;;;4156348;28;20029;-83
2021/01/01 09:57:52;;;;;;;74.72;41.90;;;4.60;99.90;;;;;;4163311;28;20034;-82
2021/01/01 09:59:52;;;;;;;76.38;40.55;;;4.60;99.90;;;;;;4173375;28;20025;-82
2021/01/01 10:01:53;;;;;;;69.82;39.70;;;4.60;99.90;;;;;;4164457;28;20088;-82
2021/01/01 10:04:00;;;;;;;60.78;35.35;;;4.60;99.90;;;;;;4163215;28;20038;-82
2021/01/01 10:06:07;;;;;;;63.35;35.65;;;4.60;99.90;;;;;;4170597;28;20021;-82
2021/01/01 10:08:09;;;;;;;61.53;35.60;;;4.60;99.90;;;;;;4171569;28;20030;-82
2021/01/01 10:10:10;;;;;;;;;;;4.60;99.90;;;;;;4154995;28;20113;-82
2021/01/01 10:12:13;;;;;;;65.72;35.55;;;4.60;99.90;;;;;;4170680;28;20365;-82
2021/01/01 10:14:14;;;;;;;60.10;34.50;;;4.60;99.90;;;;;;4155517;28;20044;-81
2021/01/01 10:16:14;;;;;;;58.78;33.22;;;4.70;99.90;;;;;;4172612;28;20033;-82
2021/01/01 10:18:16;;;;;;;58.67;33.58;;;4.70;99.90;;;;;;4167667;28;20598;-82
2021/01/01 10:20:17;;;;;;;58.53;32.97;;;4.70;99.90;;;;;;4147322;28;20026;-82
2021/01/01 10:22:19;;;;;;;68.38;38.22;;;4.70;99.90;;;;;;4151095;28;20044;-81
2021/01/01 10:24:21;;;;;;;61.03;34.33;;;4.80;99.90;;;;;;4149547;28;20042;-82
2021/01/01 10:26:23;;;;;;;64.63;37.13;;;4.70;99.90;;;;;;4175098;28;20035;-82
2021/01/01 10:28:24;;;;;;;67.20;37.33;;;4.80;99.90;;;;;;4155982;28;20034;-82
2021/01/01 10:30:26;;;;;;;56.17;33.20;;;4.70;99.90;;;;;;4172456;28;20142;-82
2021/01/01 10:32:27;;;;;;;60.80;33.75;;;4.70;99.90;;;;;;4174356;28;20034;-82
2021/01/01 10:34:28;;;;;;;55.28;31.83;;;4.80;99.90;;;;;;4147368;28;20069;-82